Time;durP1;ratioP1;P1;durP2;ratioP2;P2;SDS_P1;SDS_P2;PMS_P1;PMS_P2;Temp;Humidity;BMP_temperature;BMP_pressure;BME280_temperature;BME280_humidity;BME280_pressure;Samples;Min_cycle;Max_cycle;Signal;HPM_P1;HPM_P2
2021/03/13 00:01:02;;;;;;;1.30;1.30;;;6.70;99.90;;;;;;5101079;28;20206;-79
2021/03/13 00:03:28;;;;;;;1.70;1.60;;;6.70;99.90;;;;;;5102367;28;20201;-79
2021/03/13 00:05:55;;;;;;;1.63;1.57;;;6.70;99.90;;;;;;5081631;28;20202;-79
2021/03/13 00:08:22;;;;;;;2.97;2.87;;;6.60;99.90;;;;;;5077859;28;20213;-79
2021/03/13 00:10:49;;;;;;;1.53;1.50;;;6.50;99.90;;;;;;5086035;28;20626;-79
2021/03/13 00:13:16;;;;;;;1.40;1.40;;;6.50;99.90;;;;;;5081449;28;20205;-79
2021/03/13 00:15:44;;;;;;;1.67;1.67;;;6.40;99.90;;;;;;5101697;28;20189;-79
2021/03/13 00:18:11;;;;;;;3.50;3.30;;;6.40;99.90;;;;;;5083538;28;20662;-79
2021/03/13 00:20:40;;;;;;;2.57;2.47;;;6.30;99.90;;;;;;5102048;28;20572;-79
2021/03/13 00:23:06;;;;;;;3.20;3.10;;;6.20;99.90;;;;;;5101449;28;20673;-79
2021/03/13 00:25:35;;;;;;;3.33;3.13;;;6.20;99.90;;;;;;5096657;28;20654;-79
2021/03/13 00:28:02;;;;;;;3.60;3.40;;;6.20;99.90;;;;;;5096584;28;20204;-79
2021/03/13 00:30:30;;;;;;;3.63;3.43;;;6.10;99.90;;;;;;5103665;28;20715;-79
2021/03/13 00:32:58;;;;;;;3.10;2.90;;;6.00;99.90;;;;;;5100841;28;20202;-79
2021/03/13 00:35:25;;;;;;;2.40;2.30;;;6.00;99.90;;;;;;5103103;28;20200;-79
2021/03/13 00:37:52;;;;;;;3.70;3.50;;;5.90;99.90;;;;;;5082293;28;20206;-79
2021/03/13 00:40:22;;;;;;;3.43;3.13;;;5.90;99.90;;;;;;5084269;28;20198;-79
2021/03/13 00:42:49;;;;;;;4.47;4.13;;;5.90;99.90;;;;;;5112596;28;20220;-79
2021/03/13 00:45:18;;;;;;;5.00;4.70;;;5.80;99.90;;;;;;5093929;28;20676;-79
2021/03/13 00:47:45;;;;;;;4.00;3.80;;;5.80;99.90;;;;;;5106841;28;20201;-79
2021/03/13 00:50:13;;;;;;;4.00;3.70;;;5.90;99.90;;;;;;5082952;28;20229;-79
2021/03/13 00:52:41;;;;;;;4.23;4.03;;;5.90;99.90;;;;;;5081856;28;20250;-79
2021/03/13 00:55:09;;;;;;;4.43;4.13;;;5.90;99.90;;;;;;5100706;28;20268;-78
2021/03/13 00:57:37;;;;;;;4.07;3.87;;;6.00;99.90;;;;;;5082339;28;20198;-78
2021/03/13 01:00:06;;;;;;;4.50;4.07;;;6.00;99.90;;;;;;5074521;28;20197;-79
2021/03/13 01:02:33;;;;;;;4.03;3.73;;;6.00;99.90;;;;;;5096852;28;20641;-77
2021/03/13 01:05:00;;;;;;;3.87;3.57;;;6.10;99.90;;;;;;5093058;28;20566;-79
2021/03/13 01:07:27;;;;;;;4.00;3.70;;;6.20;99.90;;;;;;5094589;28;20189;-79
2021/03/13 01:09:53;;;;;;;4.47;3.30;;;6.20;99.90;;;;;;5111943;28;20604;-79
2021/03/13 01:12:20;;;;;;;4.07;3.60;;;6.30;99.90;;;;;;5093651;28;20596;-79
2021/03/13 01:14:47;;;;;;;4.17;3.13;;;6.40;99.90;;;;;;5093689;28;20611;-79
2021/03/13 01:17:14;;;;;;;2.60;2.40;;;6.50;99.90;;;;;;5094577;28;20197;-78
2021/03/13 01:19:40;;;;;;;2.70;2.00;;;6.50;99.90;;;;;;5113459;28;20185;-79
2021/03/13 01:22:07;;;;;;;3.17;2.90;;;6.60;99.90;;;;;;5095311;28;20223;-78
2021/03/13 01:24:34;;;;;;;2.20;2.00;;;6.60;99.90;;;;;;5113138;28;20193;-78
2021/03/13 01:27:00;;;;;;;3.87;2.10;;;6.70;99.90;;;;;;5095514;28;20557;-78
2021/03/13 01:29:26;;;;;;;3.23;1.83;;;6.80;99.90;;;;;;5094446;28;20263;-78
2021/03/13 01:32:02;;;;;;;2.50;2.03;;;6.90;99.90;;;;;;5094962;28;20221;-78
2021/03/13 01:34:32;;;;;;;2.50;1.90;;;6.90;99.90;;;;;;5094683;28;20197;-78
2021/03/13 01:37:07;;;;;;;2.20;2.00;;;6.90;99.90;;;;;;5094741;28;20235;-78
2021/03/13 01:39:38;;;;;;;3.37;1.87;;;6.90;99.90;;;;;;5094752;28;20681;-79
2021/03/13 01:42:08;;;;;;;3.00;2.03;;;6.90;99.90;;;;;;5094691;28;20262;-79
2021/03/13 01:44:35;;;;;;;5.73;1.80;;;6.90;99.90;;;;;;5112326;28;20213;-79
2021/03/13 01:47:02;;;;;;;2.40;1.80;;;6.80;99.90;;;;;;5093992;28;20612;-79
2021/03/13 01:49:33;;;;;;;2.93;2.00;;;6.80;99.90;;;;;;5094035;28;20278;-79
2021/03/13 01:52:01;;;;;;;1.80;1.70;;;6.80;99.90;;;;;;5094305;28;20213;-79
2021/03/13 01:54:27;;;;;;;3.17;1.80;;;6.70;99.90;;;;;;5112100;28;20192;-78
2021/03/13 01:56:54;;;;;;;2.17;1.90;;;6.70;99.90;;;;;;5112335;28;20573;-78
2021/03/13 01:59:24;;;;;;;1.73;1.60;;;6.60;99.90;;;;;;5095479;28;20243;-79
2021/03/13 02:01:53;;;;;;;4.27;2.13;;;6.60;99.90;;;;;;5097333;28;20296;-78
2021/03/13 02:04:22;;;;;;;1.83;1.50;;;6.50;99.90;;;;;;5097393;28;20197;-78
2021/03/13 02:06:59;;;;;;;1.73;1.63;;;6.50;99.90;;;;;;5097463;28;20669;-77
2021/03/13 02:09:34;;;;;;;2.87;1.90;;;6.40;99.90;;;;;;5097069;28;20296;-78
2021/03/13 02:12:16;;;;;;;2.73;2.00;;;6.40;99.90;;;;;;5097035;28;20606;-79
2021/03/13 02:14:49;;;;;;;3.13;1.80;;;6.40;99.90;;;;;;5096820;28;20242;-78
2021/03/13 02:17:27;;;;;;;4.70;1.90;;;6.40;99.90;;;;;;5097182;28;20198;-79
2021/03/13 02:20:24;;;;;;;2.03;1.70;;;6.40;99.90;;;;;;5115455;28;20230;-78
2021/03/13 02:23:00;;;;;;;4.37;1.80;;;6.40;99.90;;;;;;5097319;28;20199;-79
2021/03/13 02:26:00;;;;;;;2.00;1.90;;;6.40;99.90;;;;;;5115312;28;20223;-78
2021/03/13 02:28:43;;;;;;;2.00;1.90;;;6.40;99.90;;;;;;5096807;28;20232;-78
2021/03/13 02:31:12;;;;;;;2.43;1.90;;;6.30;99.90;;;;;;5096756;28;20229;-78
2021/03/13 02:33:41;;;;;;;4.43;2.37;;;6.30;99.90;;;;;;5096982;28;20572;-79
2021/03/13 02:36:20;;;;;;;4.03;2.13;;;6.30;99.90;;;;;;5096807;28;20194;-79
2021/03/13 02:38:56;;;;;;;1.80;1.70;;;6.30;99.90;;;;;;5096910;28;20203;-78
2021/03/13 02:41:31;;;;;;;2.23;1.90;;;6.40;99.90;;;;;;5096814;28;20240;-78
2021/03/13 02:44:01;;;;;;;2.33;1.80;;;6.40;99.90;;;;;;5096780;28;20193;-79
2021/03/13 02:46:34;;;;;;;3.20;1.90;;;6.50;99.90;;;;;;5096627;28;20193;-79
2021/03/13 02:49:02;;;;;;;4.40;2.13;;;6.50;99.90;;;;;;5115087;28;20201;-79
2021/03/13 02:51:31;;;;;;;2.63;1.80;;;6.50;99.90;;;;;;5096369;28;20239;-78
2021/03/13 02:54:00;;;;;;;1.90;1.77;;;6.50;99.90;;;;;;5096541;28;20193;-79
2021/03/13 02:56:27;;;;;;;3.30;1.90;;;6.40;99.90;;;;;;5098054;28;20792;-79
2021/03/13 02:58:57;;;;;;;4.93;2.17;;;6.50;99.90;;;;;;5098476;28;20193;-79
2021/03/13 03:01:31;;;;;;;2.77;1.87;;;6.50;99.90;;;;;;5097827;28;20213;-79
2021/03/13 03:04:02;;;;;;;3.63;2.10;;;6.50;99.90;;;;;;5097683;28;20193;-79
2021/03/13 03:06:33;;;;;;;2.20;2.00;;;6.50;99.90;;;;;;5097633;28;20201;-79
2021/03/13 03:09:01;;;;;;;3.43;2.00;;;6.40;99.90;;;;;;5097320;28;20217;-79
2021/03/13 03:11:34;;;;;;;3.20;1.83;;;6.40;99.90;;;;;;5096648;28;20638;-79
2021/03/13 03:14:04;;;;;;;2.63;2.00;;;6.40;99.90;;;;;;5097740;28;20622;-80
2021/03/13 03:16:37;;;;;;;2.37;1.93;;;6.50;99.90;;;;;;5097160;28;20200;-79
2021/03/13 03:19:04;;;;;;;1.90;1.80;;;6.50;99.90;;;;;;5100221;28;20190;-79
2021/03/13 03:21:36;;;;;;;2.00;1.80;;;6.60;99.90;;;;;;5118748;28;20292;-78
2021/03/13 03:24:04;;;;;;;3.70;2.30;;;6.70;99.90;;;;;;5100373;28;20686;-78
2021/03/13 03:26:31;;;;;;;3.40;2.27;;;6.80;99.90;;;;;;5100154;28;20861;-79
2021/03/13 03:28:57;;;;;;;6.50;6.10;;;6.90;99.90;;;;;;5100075;28;20239;-78
2021/03/13 03:31:24;;;;;;;7.20;6.60;;;6.90;99.90;;;;;;5099104;28;20347;-80
2021/03/13 03:33:52;;;;;;;6.83;6.40;;;7.00;99.90;;;;;;5099328;28;20678;-79
2021/03/13 03:36:20;;;;;;;6.73;6.30;;;7.00;99.90;;;;;;5099999;28;20620;-82
2021/03/13 03:38:49;;;;;;;7.07;6.43;;;7.10;99.90;;;;;;5100732;28;20288;-80
2021/03/13 03:41:24;;;;;;;6.63;6.20;;;7.10;99.90;;;;;;5099517;28;20247;-78
2021/03/13 03:43:58;;;;;;;5.60;5.20;;;7.20;99.90;;;;;;5099998;28;20197;-79
2021/03/13 03:46:29;;;;;;;5.43;5.03;;;7.20;99.90;;;;;;5082621;28;20235;-80
2021/03/13 03:48:57;;;;;;;5.30;5.00;;;7.20;99.90;;;;;;5083068;28;20251;-80
2021/03/13 03:51:33;;;;;;;5.73;5.23;;;7.20;99.90;;;;;;5087291;28;20717;-78
2021/03/13 03:54:11;;;;;;;5.90;5.40;;;7.20;99.90;;;;;;5082469;28;20201;-78
2021/03/13 03:56:39;;;;;;;5.53;5.13;;;7.20;99.90;;;;;;5090106;28;20739;-76
2021/03/13 03:59:09;;;;;;;5.50;5.10;;;7.20;99.90;;;;;;5083147;28;20604;-77
2021/03/13 04:01:36;;;;;;;5.10;4.80;;;7.20;99.90;;;;;;5083867;28;20226;-78
2021/03/13 04:04:07;;;;;;;5.90;5.13;;;7.10;99.90;;;;;;5087947;28;20198;-77
2021/03/13 04:06:33;;;;;;;5.20;4.90;;;7.10;99.90;;;;;;5066056;28;20194;-78
2021/03/13 04:09:04;;;;;;;5.60;5.23;;;7.10;99.90;;;;;;5069770;28;20210;-77
2021/03/13 04:11:31;;;;;;;5.47;5.03;;;7.10;99.90;;;;;;5092672;28;20227;-77
2021/03/13 04:13:59;;;;;;;5.57;5.17;;;7.10;99.90;;;;;;5074851;28;20208;-78
2021/03/13 04:16:29;;;;;;;5.63;5.23;;;7.10;99.90;;;;;;5092176;28;20209;-77
2021/03/13 04:18:56;;;;;;;6.00;5.40;;;7.10;99.90;;;;;;5074274;28;20263;-77
2021/03/13 04:21:23;;;;;;;5.70;5.20;;;7.20;99.90;;;;;;5090762;28;20332;-79
2021/03/13 04:23:50;;;;;;;5.30;4.90;;;7.20;99.90;;;;;;5067997;28;20612;-78
2021/03/13 04:26:17;;;;;;;5.43;4.93;;;7.20;99.90;;;;;;5073788;28;20663;-77
2021/03/13 04:28:44;;;;;;;5.37;4.97;;;7.30;99.90;;;;;;5092407;28;20210;-78
2021/03/13 04:31:17;;;;;;;5.37;4.97;;;7.30;99.90;;;;;;5074060;28;20227;-77
2021/03/13 04:33:44;;;;;;;5.40;5.10;;;7.30;99.90;;;;;;5075070;28;20611;-77
2021/03/13 04:36:15;;;;;;;5.50;5.10;;;7.30;99.90;;;;;;5092443;28;20211;-76
2021/03/13 04:38:43;;;;;;;5.33;5.00;;;7.40;99.90;;;;;;5074163;28;20207;-76
2021/03/13 04:41:10;;;;;;;5.80;5.20;;;7.40;99.90;;;;;;5074087;28;20221;-76
2021/03/13 04:43:38;;;;;;;5.40;5.00;;;7.40;99.90;;;;;;5080001;28;20196;-77
2021/03/13 04:46:05;;;;;;;5.57;5.17;;;7.40;99.90;;;;;;5082444;28;20434;-77
2021/03/13 05:17:58;;;;;;;7.20;6.80;;;7.60;99.90;;;;;;4229726;27;25217349;-81
2021/03/13 05:20:25;;;;;;;5.80;5.40;;;7.70;99.90;;;;;;5102580;28;20569;-78
2021/03/13 05:22:51;;;;;;;5.90;5.50;;;7.70;99.90;;;;;;5108999;28;20688;-78
2021/03/13 05:25:18;;;;;;;5.70;5.40;;;7.70;99.90;;;;;;5104532;28;20188;-79
2021/03/13 05:30:15;;;;;;;6.37;5.97;;;7.70;99.90;;;;;;5048269;28;20894;-79
2021/03/13 05:32:41;;;;;;;6.13;5.73;;;7.70;99.90;;;;;;5048418;28;20293;-78
2021/03/13 05:35:11;;;;;;;6.40;6.00;;;7.70;99.90;;;;;;5052272;28;20306;-77
2021/03/13 05:37:38;;;;;;;6.10;5.80;;;7.70;99.90;;;;;;5051349;28;20201;-77
2021/03/13 05:40:06;;;;;;;5.90;5.60;;;7.70;99.90;;;;;;5064616;28;20225;-78
2021/03/13 05:42:34;;;;;;;6.43;6.03;;;7.70;99.90;;;;;;5046316;28;20205;-79
2021/03/13 05:45:01;;;;;;;6.30;5.90;;;7.70;99.90;;;;;;5070286;28;20202;-79
2021/03/13 05:47:28;;;;;;;7.17;6.50;;;7.80;99.90;;;;;;5056454;28;20215;-79
2021/03/13 05:50:02;;;;;;;6.83;6.30;;;7.80;99.90;;;;;;5059037;28;20220;-78
2021/03/13 05:52:32;;;;;;;6.10;5.70;;;7.80;99.90;;;;;;5042282;28;20209;-79
2021/03/13 05:58:46;;;;;;;6.33;5.83;;;7.80;99.90;;;;;;4992887;28;20230;-77
2021/03/13 06:01:12;;;;;;;5.93;5.53;;;7.80;99.90;;;;;;5007231;28;20218;-78
2021/03/13 06:03:39;;;;;;;5.57;5.27;;;7.80;99.90;;;;;;5015253;28;20208;-78
2021/03/13 06:06:08;;;;;;;5.57;5.30;;;7.80;99.90;;;;;;5013229;28;20214;-78
2021/03/13 06:08:36;;;;;;;5.53;5.23;;;7.80;99.90;;;;;;5031612;28;20203;-78
2021/03/13 06:11:02;;;;;;;6.10;5.60;;;7.80;99.90;;;;;;5029357;22;20241;-78
2021/03/13 06:13:29;;;;;;;6.33;5.73;;;7.90;99.90;;;;;;5011958;28;20201;-81
2021/03/13 06:15:55;;;;;;;5.93;5.53;;;7.90;99.90;;;;;;5028988;28;20218;-78
2021/03/13 06:18:21;;;;;;;6.10;5.60;;;7.90;99.90;;;;;;5015775;28;20238;-79
2021/03/13 06:20:48;;;;;;;6.30;5.90;;;7.90;99.90;;;;;;4996732;28;20221;-79
2021/03/13 06:23:15;;;;;;;5.80;5.30;;;8.00;99.90;;;;;;5014970;28;20261;-79
2021/03/13 06:25:43;;;;;;;5.80;5.40;;;8.00;99.90;;;;;;5014609;28;20186;-80
2021/03/13 06:28:14;;;;;;;6.10;5.60;;;8.10;99.90;;;;;;5014616;28;20267;-80
2021/03/13 06:30:43;;;;;;;6.27;5.87;;;8.10;99.90;;;;;;5014386;28;20245;-80
2021/03/13 06:33:24;;;;;;;6.00;5.67;;;8.10;99.90;;;;;;4996053;28;20807;-77
2021/03/13 06:35:52;;;;;;;5.80;5.40;;;8.10;99.90;;;;;;5013335;28;20217;-77
2021/03/13 06:38:21;;;;;;;6.13;5.63;;;8.10;99.90;;;;;;5013901;28;20202;-76
2021/03/13 06:40:50;;;;;;;7.53;5.73;;;8.10;99.90;;;;;;4996460;28;20279;-79
2021/03/13 06:43:25;;;;;;;5.90;5.50;;;8.10;99.90;;;;;;5017616;28;20199;-79
2021/03/13 06:45:57;;;;;;;5.70;5.30;;;8.20;99.90;;;;;;5005120;28;20231;-79
2021/03/13 06:48:41;;;;;;;6.40;6.00;;;8.20;99.90;;;;;;4999479;28;20215;-79
2021/03/13 06:51:19;;;;;;;6.47;6.03;;;8.30;99.90;;;;;;5012717;28;20720;-78
2021/03/13 06:53:58;;;;;;;6.57;5.80;;;8.30;99.90;;;;;;4993531;28;20202;-77
2021/03/13 06:56:27;;;;;;;5.70;5.40;;;8.30;99.90;;;;;;4991977;28;20219;-80
2021/03/13 06:58:54;;;;;;;5.37;5.07;;;8.40;99.90;;;;;;4995516;28;20245;-82
2021/03/13 07:01:26;;;;;;;5.73;5.33;;;8.50;99.90;;;;;;5012457;28;20222;-76
2021/03/13 07:03:52;;;;;;;6.00;5.50;;;8.60;99.90;;;;;;4996001;28;20207;-77
2021/03/13 07:06:19;;;;;;;5.60;5.30;;;8.60;99.90;;;;;;4995646;28;20207;-77
2021/03/13 07:08:47;;;;;;;6.20;5.60;;;8.60;99.90;;;;;;4998022;28;20203;-75
2021/03/13 07:11:18;;;;;;;5.67;5.37;;;8.60;99.90;;;;;;5024753;28;20238;-76
2021/03/13 07:13:48;;;;;;;5.83;5.50;;;8.70;99.90;;;;;;5013398;28;20195;-76
2021/03/13 07:16:29;;;;;;;5.60;5.20;;;8.60;99.90;;;;;;5031070;28;20224;-76
2021/03/13 07:18:57;;;;;;;5.40;5.10;;;8.60;99.90;;;;;;5028172;28;20206;-79
2021/03/13 07:21:25;;;;;;;5.10;4.70;;;8.60;99.90;;;;;;5036847;28;20918;-79
2021/03/13 07:23:58;;;;;;;5.33;4.93;;;8.60;99.90;;;;;;5014797;28;20630;-75
2021/03/13 07:26:25;;;;;;;5.73;5.43;;;8.70;99.90;;;;;;5012682;28;20200;-75
2021/03/13 07:28:59;;;;;;;6.40;5.80;;;8.80;99.90;;;;;;5031342;28;20666;-77
2021/03/13 07:31:28;;;;;;;4.87;4.57;;;8.90;99.90;;;;;;5032149;28;20211;-77
2021/03/13 07:33:59;;;;;;;5.60;5.10;;;8.90;99.90;;;;;;5032640;28;20258;-77
2021/03/13 07:36:26;;;;;;;5.80;4.77;;;9.00;99.90;;;;;;5032215;28;20242;-77
2021/03/13 07:38:57;;;;;;;4.80;4.50;;;9.00;99.90;;;;;;5032331;28;20198;-77
2021/03/13 07:41:24;;;;;;;5.20;4.80;;;9.00;99.90;;;;;;5036094;28;20274;-76
2021/03/13 07:43:53;;;;;;;6.00;4.80;;;9.10;99.90;;;;;;5032335;28;20198;-77
2021/03/13 07:46:22;;;;;;;6.17;5.70;;;9.20;99.90;;;;;;5014457;28;20207;-77
2021/03/13 07:48:49;;;;;;;7.30;6.80;;;9.20;99.90;;;;;;5014699;28;20285;-77
2021/03/13 07:51:16;;;;;;;7.40;6.90;;;9.30;99.90;;;;;;5007357;28;20309;-77
2021/03/13 07:53:43;;;;;;;7.07;6.67;;;9.30;99.90;;;;;;5013652;28;20296;-77
2021/03/13 07:56:12;;;;;;;7.90;7.30;;;9.40;99.90;;;;;;5033392;28;20280;-78
2021/03/13 07:58:39;;;;;;;8.10;7.57;;;9.50;99.90;;;;;;5017966;28;20679;-76
2021/03/13 08:01:07;;;;;;;7.77;7.23;;;9.60;99.90;;;;;;5012639;28;20235;-76
2021/03/13 08:03:40;;;;;;;8.17;7.33;;;9.70;99.90;;;;;;5011566;28;20196;-75
2021/03/13 08:06:07;;;;;;;7.97;7.37;;;9.80;99.90;;;;;;5026255;28;20200;-77
2021/03/13 08:08:35;;;;;;;8.20;7.70;;;9.90;99.90;;;;;;5024537;28;20215;-76
2021/03/13 08:11:02;;;;;;;7.83;7.33;;;10.00;99.90;;;;;;5016775;28;20242;-77
2021/03/13 08:13:54;;;;;;;7.57;7.00;;;10.10;99.90;;;;;;5014088;28;20212;-76
2021/03/13 08:16:44;;;;;;;7.27;6.67;;;10.20;99.90;;;;;;5031435;28;20216;-77
2021/03/13 08:19:42;;;;;;;6.83;6.33;;;10.30;99.90;;;;;;5031985;28;20206;-77
2021/03/13 08:22:19;;;;;;;7.30;6.90;;;10.50;99.90;;;;;;4951034;28;20207;-77
2021/03/13 08:24:50;;;;;;;7.10;6.70;;;10.80;99.90;;;;;;5011425;28;20475;-76
2021/03/13 08:27:19;;;;;;;8.00;7.20;;;11.10;99.90;;;;;;5014178;28;20200;-81
2021/03/13 08:29:56;;;;;;;6.87;6.30;;;11.50;99.90;;;;;;5008211;28;20740;-77
2021/03/13 08:32:57;;;;;;;7.10;6.70;;;11.70;99.90;;;;;;5018920;28;20215;-78
2021/03/13 08:35:35;;;;;;;6.47;6.13;;;12.10;99.90;;;;;;4949965;28;20218;-80
2021/03/13 08:38:01;;;;;;;7.00;6.60;;;12.50;99.90;;;;;;4953510;28;20601;-78
2021/03/13 08:40:28;;;;;;;7.07;6.57;;;12.60;99.90;;;;;;4978928;28;20233;-77
2021/03/13 08:42:55;;;;;;;7.43;6.97;;;12.80;99.90;;;;;;5014581;28;20223;-77
2021/03/13 08:45:23;;;;;;;6.90;6.50;;;12.90;99.90;;;;;;5032766;28;20205;-77
2021/03/13 08:47:52;;;;;;;4.53;3.33;;;13.20;99.90;;;;;;5042754;28;20193;-77
2021/03/13 08:50:56;;;;;;;6.83;6.43;;;13.60;99.90;;;;;;5045528;28;20565;-77
2021/03/13 08:53:36;;;;;;;7.00;6.50;;;13.60;99.90;;;;;;5038220;28;20205;-76
2021/03/13 08:56:03;;;;;;;7.33;6.93;;;13.40;99.90;;;;;;5032549;28;20223;-77
2021/03/13 08:58:43;;;;;;;5.90;5.60;;;13.20;99.90;;;;;;5032484;28;20202;-77
2021/03/13 09:01:21;;;;;;;7.30;6.90;;;13.20;99.90;;;;;;5014098;28;20230;-77
2021/03/13 09:03:48;;;;;;;8.17;7.57;;;13.00;99.90;;;;;;5007963;28;20222;-77
2021/03/13 09:06:17;;;;;;;7.20;6.80;;;13.10;99.90;;;;;;5031702;28;20196;-77
2021/03/13 09:08:43;;;;;;;6.90;6.50;;;13.10;99.90;;;;;;5033415;28;20198;-79
2021/03/13 09:11:10;;;;;;;8.17;7.40;;;13.00;99.90;;;;;;5014671;28;20721;-77
2021/03/13 09:13:36;;;;;;;6.93;6.53;;;13.00;99.90;;;;;;5015087;28;20207;-78
2021/03/13 09:16:18;;;;;;;6.67;6.23;;;12.90;99.90;;;;;;5032284;28;20684;-77
2021/03/13 09:18:53;;;;;;;7.50;7.00;;;12.80;99.90;;;;;;5025395;28;20244;-77
2021/03/13 09:21:48;;;;;;;7.00;6.60;;;12.80;99.90;;;;;;5015028;28;20272;-78
2021/03/13 09:24:17;;;;;;;7.63;7.10;;;12.60;99.90;;;;;;4970027;28;20206;-77
2021/03/13 09:26:48;;;;;;;7.77;7.20;;;12.60;99.90;;;;;;5015039;28;20201;-77
2021/03/13 09:29:14;;;;;;;5.13;2.87;;;12.50;99.90;;;;;;5017278;28;20569;-76
2021/03/13 09:31:41;;;;;;;2.70;2.60;;;12.40;99.90;;;;;;5021779;28;20223;-76
2021/03/13 09:34:21;;;;;;;11.77;7.10;;;12.40;99.90;;;;;;5012364;28;20198;-80
2021/03/13 09:36:48;;;;;;;3.20;3.00;;;12.50;99.90;;;;;;5040015;28;20267;-77
2021/03/13 09:39:24;;;;;;;3.03;2.80;;;12.40;99.90;;;;;;5036427;28;20202;-76
2021/03/13 09:42:04;;;;;;;5.70;2.97;;;12.40;99.90;;;;;;5033101;28;20751;-78
2021/03/13 09:44:32;;;;;;;3.20;2.90;;;12.40;99.90;;;;;;5015816;28;20294;-77
2021/03/13 09:46:58;;;;;;;3.33;3.10;;;12.40;99.90;;;;;;5032410;28;20194;-77
2021/03/13 09:49:26;;;;;;;3.53;3.23;;;12.40;99.90;;;;;;5015349;28;20210;-78
2021/03/13 09:51:53;;;;;;;4.23;3.20;;;12.30;99.90;;;;;;5021069;28;20233;-81
2021/03/13 09:54:20;;;;;;;7.50;7.00;;;12.30;99.90;;;;;;5036452;28;20202;-79
2021/03/13 09:56:46;;;;;;;7.90;7.50;;;12.50;99.90;;;;;;5034254;28;20207;-75
2021/03/13 09:59:16;;;;;;;7.63;7.23;;;12.50;99.90;;;;;;5016334;28;20236;-74
2021/03/13 10:01:42;;;;;;;7.83;7.23;;;12.60;99.90;;;;;;5034387;28;20210;-79
2021/03/13 10:04:09;;;;;;;7.30;6.80;;;12.60;99.90;;;;;;5038273;28;20199;-76
2021/03/13 10:06:35;;;;;;;5.03;4.67;;;12.50;99.90;;;;;;5026366;28;20173;-78
2021/03/13 10:09:03;;;;;;;6.97;6.57;;;12.50;99.90;;;;;;5026055;28;20620;-79
2021/03/13 10:11:41;;;;;;;7.10;6.63;;;12.50;99.90;;;;;;5016345;28;20598;-77
2021/03/13 10:14:18;;;;;;;6.80;6.40;;;12.50;99.90;;;;;;5016627;28;20210;-78
2021/03/13 10:16:45;;;;;;;7.37;6.87;;;12.50;99.90;;;;;;5027353;28;20217;-77
2021/03/13 10:19:36;;;;;;;6.80;6.40;;;12.50;99.90;;;;;;5016735;28;20922;-78
2021/03/13 10:22:10;;;;;;;7.00;6.60;;;12.50;99.90;;;;;;5033967;28;20209;-82
2021/03/13 10:24:46;;;;;;;7.13;6.63;;;12.50;99.90;;;;;;5021863;28;20266;-83
2021/03/13 10:27:22;;;;;;;6.40;6.10;;;12.50;99.90;;;;;;5042523;28;20197;-80
2021/03/13 10:29:51;;;;;;;7.10;6.70;;;12.60;99.90;;;;;;5022024;28;20207;-81
2021/03/13 10:32:24;;;;;;;6.50;6.10;;;12.70;99.90;;;;;;5022961;28;20200;-83
2021/03/13 10:35:09;;;;;;;6.90;6.50;;;12.70;99.90;;;;;;5022152;28;20233;-81
2021/03/13 10:37:37;;;;;;;7.10;6.60;;;12.80;99.90;;;;;;5023060;28;20230;-80
2021/03/13 10:40:06;;;;;;;7.00;6.57;;;12.70;99.90;;;;;;5047890;28;20219;-83
2021/03/13 10:42:34;;;;;;;6.90;6.50;;;12.70;99.90;;;;;;5029592;28;20195;-81
2021/03/13 10:45:18;;;;;;;6.93;6.43;;;12.70;99.90;;;;;;5027802;28;20221;-79
2021/03/13 10:47:45;;;;;;;7.27;6.73;;;12.70;99.90;;;;;;5011698;28;20205;-80
2021/03/13 10:50:13;;;;;;;6.90;6.50;;;12.70;99.90;;;;;;5024872;28;20269;-81
2021/03/13 10:52:40;;;;;;;6.50;6.20;;;12.70;99.90;;;;;;5021143;28;20204;-78
2021/03/13 10:55:08;;;;;;;7.63;6.93;;;12.70;99.90;;;;;;5034401;28;20204;-84
2021/03/13 10:57:35;;;;;;;7.07;6.67;;;12.70;99.90;;;;;;5029025;28;20692;-79
2021/03/13 11:00:05;;;;;;;6.80;6.40;;;12.90;99.90;;;;;;5033543;28;20216;-80
2021/03/13 11:02:31;;;;;;;6.57;6.17;;;12.80;99.90;;;;;;5015794;28;20202;-79
2021/03/13 11:04:58;;;;;;;6.90;6.50;;;12.80;99.90;;;;;;5035829;28;20198;-80
2021/03/13 11:07:24;;;;;;;6.70;6.30;;;12.70;99.90;;;;;;5018777;28;20207;-80
2021/03/13 11:09:50;;;;;;;6.60;6.20;;;12.50;99.90;;;;;;5040357;28;20250;-77
2021/03/13 11:12:17;;;;;;;6.47;6.07;;;12.40;99.90;;;;;;5016751;28;20268;-78
2021/03/13 11:14:44;;;;;;;6.53;6.23;;;12.30;99.90;;;;;;5031199;28;20204;-78
2021/03/13 11:17:10;;;;;;;6.40;6.00;;;12.30;99.90;;;;;;5034010;28;20414;-78
2021/03/13 11:19:36;;;;;;;6.80;6.40;;;12.20;99.90;;;;;;5013402;28;20202;-79
2021/03/13 11:22:09;;;;;;;6.50;6.10;;;12.20;99.90;;;;;;5002103;28;20198;-78
2021/03/13 11:24:36;;;;;;;6.40;6.10;;;12.20;99.90;;;;;;5017288;28;20195;-77
2021/03/13 11:27:02;;;;;;;7.00;6.50;;;12.20;99.90;;;;;;5000607;28;20256;-77
2021/03/13 11:29:30;;;;;;;6.60;6.30;;;12.30;99.90;;;;;;5026023;28;20205;-78
2021/03/13 11:31:56;;;;;;;6.50;6.10;;;12.30;99.90;;;;;;5015574;28;20253;-78
2021/03/13 11:34:22;;;;;;;6.40;6.00;;;12.30;99.90;;;;;;5039964;28;20208;-79
2021/03/13 11:36:49;;;;;;;6.70;6.30;;;12.40;99.90;;;;;;5021455;28;20299;-77
2021/03/13 11:39:16;;;;;;;7.10;6.60;;;12.30;99.90;;;;;;5012817;28;20257;-77
2021/03/13 11:41:42;;;;;;;7.80;7.10;;;12.30;99.90;;;;;;5022120;28;20248;-79
2021/03/13 11:44:10;;;;;;;6.80;6.40;;;12.20;99.90;;;;;;5000692;28;20202;-79
2021/03/13 11:46:38;;;;;;;7.13;6.73;;;12.30;99.90;;;;;;5007798;28;20197;-79
2021/03/13 11:49:04;;;;;;;7.33;6.73;;;12.30;99.90;;;;;;5021306;28;20303;-78
2021/03/13 11:51:30;;;;;;;6.90;6.50;;;12.40;99.90;;;;;;5009452;28;20221;-79
2021/03/13 11:53:57;;;;;;;6.70;6.30;;;12.50;99.90;;;;;;5012297;28;20198;-79
2021/03/13 11:56:23;;;;;;;6.80;6.40;;;12.50;99.90;;;;;;5003259;28;20707;-79
2021/03/13 11:58:49;;;;;;;10.17;9.27;;;12.50;99.90;;;;;;5034774;28;20197;-81
2021/03/13 12:01:17;;;;;;;10.73;9.70;;;12.40;99.90;;;;;;5019104;28;20217;-78
2021/03/13 12:03:44;;;;;;;7.37;6.87;;;12.40;99.90;;;;;;5032429;28;20206;-78
2021/03/13 12:06:11;;;;;;;7.50;6.90;;;12.30;99.90;;;;;;5009259;28;20258;-80
2021/03/13 12:08:37;;;;;;;7.20;6.70;;;12.20;99.90;;;;;;5045540;28;20216;-79
2021/03/13 12:11:03;;;;;;;6.87;6.37;;;12.20;99.90;;;;;;5033210;28;20232;-78
2021/03/13 12:13:30;;;;;;;6.87;6.50;;;12.20;99.90;;;;;;5037927;28;20247;-79
2021/03/13 12:15:56;;;;;;;6.90;6.40;;;12.00;99.90;;;;;;5024763;28;20211;-78
2021/03/13 12:18:22;;;;;;;6.60;6.20;;;12.00;99.90;;;;;;5020344;28;20212;-78
2021/03/13 12:20:50;;;;;;;6.70;6.30;;;12.00;99.90;;;;;;5040141;28;20217;-78
2021/03/13 12:23:16;;;;;;;6.70;6.20;;;12.00;99.90;;;;;;5029079;28;20221;-79
2021/03/13 12:25:42;;;;;;;7.20;6.60;;;12.00;99.90;;;;;;5024087;28;20208;-79
2021/03/13 12:28:08;;;;;;;6.70;6.30;;;12.00;99.90;;;;;;5029495;28;20202;-78
2021/03/13 12:30:35;;;;;;;6.70;6.30;;;12.00;99.90;;;;;;5043624;28;20219;-78
2021/03/13 12:33:01;;;;;;;6.30;6.00;;;12.00;99.90;;;;;;5034727;28;20682;-79
2021/03/13 12:35:27;;;;;;;6.90;6.40;;;12.10;99.90;;;;;;5024322;28;20252;-79
2021/03/13 12:37:55;;;;;;;6.00;5.70;;;12.00;99.90;;;;;;5021033;28;20565;-78
2021/03/13 12:40:21;;;;;;;6.30;5.90;;;12.10;99.90;;;;;;5033928;28;20865;-77
2021/03/13 12:42:47;;;;;;;6.10;5.70;;;12.10;99.90;;;;;;5018881;28;20196;-78
2021/03/13 12:45:14;;;;;;;13.27;10.10;;;12.10;99.90;;;;;;5019125;28;20204;-78
2021/03/13 12:47:41;;;;;;;7.90;7.20;;;12.20;99.90;;;;;;5017640;28;20196;-78
2021/03/13 12:50:08;;;;;;;6.77;6.30;;;12.30;99.90;;;;;;5017318;28;20248;-78
2021/03/13 12:52:35;;;;;;;6.20;5.80;;;12.30;99.90;;;;;;5034623;28;20192;-77
2021/03/13 12:55:02;;;;;;;6.30;5.90;;;12.30;99.90;;;;;;5018347;28;20211;-79
2021/03/13 12:57:29;;;;;;;6.20;5.90;;;12.30;99.90;;;;;;5017740;28;20231;-78
2021/03/13 12:59:55;;;;;;;6.50;6.00;;;12.30;99.90;;;;;;5035613;28;20242;-79
2021/03/13 13:02:21;;;;;;;6.20;5.90;;;12.20;99.90;;;;;;5035748;28;20628;-79
2021/03/13 13:04:48;;;;;;;6.20;5.80;;;12.10;99.90;;;;;;5018680;28;20193;-78
2021/03/13 13:07:14;;;;;;;6.10;5.80;;;12.10;99.90;;;;;;5034673;28;20650;-77
2021/03/13 13:09:41;;;;;;;6.97;6.37;;;12.10;99.90;;;;;;5013132;28;20204;-77
2021/03/13 13:12:10;;;;;;;6.00;5.70;;;12.10;99.90;;;;;;5015481;28;20240;-77
2021/03/13 13:14:36;;;;;;;5.90;5.60;;;12.10;99.90;;;;;;5014862;28;20227;-77
2021/03/13 13:17:04;;;;;;;5.93;5.53;;;11.90;99.90;;;;;;5016682;28;20215;-80
2021/03/13 13:19:30;;;;;;;6.60;6.20;;;11.70;99.90;;;;;;5038438;28;20203;-79
2021/03/13 13:21:57;;;;;;;6.67;6.20;;;11.50;99.90;;;;;;5043972;28;20204;-78
2021/03/13 13:24:23;;;;;;;6.60;6.10;;;11.40;99.90;;;;;;5032618;28;20232;-78
2021/03/13 13:26:49;;;;;;;6.20;5.80;;;11.40;99.90;;;;;;5014097;28;20250;-78
2021/03/13 13:29:16;;;;;;;6.20;5.80;;;11.40;99.90;;;;;;5028920;28;20208;-77
2021/03/13 13:31:43;;;;;;;6.10;5.70;;;11.50;99.90;;;;;;5007946;28;20279;-79
2021/03/13 13:34:09;;;;;;;6.00;5.67;;;11.50;99.90;;;;;;5007088;28;20207;-77
2021/03/13 13:36:36;;;;;;;6.47;6.07;;;11.50;99.90;;;;;;5022674;28;20569;-77
2021/03/13 13:39:03;;;;;;;6.00;5.60;;;11.40;99.90;;;;;;5003985;28;20213;-77
2021/03/13 13:41:29;;;;;;;6.30;6.00;;;11.30;99.90;;;;;;5020600;28;20217;-77